• Join FlightAware (Why Join?)
  • Login
  • US Flag 
03:13PM EDT


 

Airport Tracker/Info


-or-


 

Live Flight TrackerFlight Track Log ✈ EJA839 ✈ 29-Sep-2013 ✈ KDAL - KSHV

Flight Track Log - Related Links

Times and Time Zones

All times are in EDT time to prevent confusion due to time zone crossing. See the EJA839 flight status page for this flight to view local times or setup timezone preferences in your user account.

Time Position Orientation Groundspeed Altitude Reporting Facility
EDT Latitude Longitude Course Direction KTS MPH feet Rate Location/Type
02:53PM 32.9000 -96.9000 320° Northwest 207 238 4,100  Level Dallas / Fort Worth TRACON
02:53PM 32.9500 -96.9000 360° North 246 283 6,700 2,640 Climbing Dallas / Fort Worth TRACON
02:54PM 32.9333 -96.8167 103° East 287 330 9,200 2,640 Climbing Dallas / Fort Worth TRACON
02:55PM 32.9167 -96.7167 101° East 302 348 12,000 2,460 Climbing Dallas / Fort Worth TRACON
02:57PM 32.8950 -96.5328 98° East 327 376 16,100 1,740 Climbing Fort Worth Center
02:58PM 32.8797 -96.4314 100° East 338 389 17,000 480 Climbing Fort Worth Center
02:59PM 32.8661 -96.2931 97° East 371 427 17,100  Climbing Fort Worth Center
03:00PM 32.8692 -96.1767 88° East 379 436 17,100  Level Fort Worth Center
03:01PM 32.8717 -96.0356 89° East 384 442 17,100 -60 Level Fort Worth Center
03:02PM 32.8622 -95.9197 96° East 384 442 17,000  Descending Fort Worth Center
03:03PM 32.8353 -95.7842 103° East 384 442 17,100  Climbing Fort Worth Center
03:04PM 32.8150 -95.6683 102° East 391 450 17,100 -60 Level Fort Worth Center
03:05PM 32.7881 -95.5303 103° East 391 450 17,000 -60 Descending Fort Worth Center
03:06PM 32.7611 -95.4050 104° East 391 450 17,000  Level Fort Worth Center
03:07PM 32.7447 -95.3067 101° East 391 450 17,000  Level Fort Worth Center
03:08PM 32.7153 -95.1664 104° East 391 450 17,000  Level Fort Worth Center
03:09PM 32.6922 -95.0461 103° East 385 443 17,000 -60 Level Fort Worth Center
03:10PM 32.6669 -94.9283 104° East 371 427 16,900 -780 Descending Fort Worth Center
03:11PM 32.6458 -94.8156 103° East 366 421 15,500 -1,440 Descending Fort Worth Center
03:12PM 32.6225 -94.7003 103° East 361 415 14,100 -1,260 Descending Fort Worth Center
03:13PM 32.6033 -94.5872 101° East 347 399 13,000 -600 Descending Fort Worth Center
03:14PM 32.5778 -94.4747 105° East 345 397 13,000  Level Fort Worth Center
03:14PM 32.5775 -94.4650 92° East 347 399 13,000 -1,320 Level Fort Worth Center
03:15PM 32.5544 -94.3669 106° East 336 387 11,700 -1,320 Descending Fort Worth Center
03:15PM 32.5586 -94.3694 333° Northwest 340 391 11,700 -900 Level Fort Worth Center
03:16PM 32.5353 -94.2642 105° East 324 373 10,800 -1,020 Descending Fort Worth Center
03:16PM 32.5350 -94.2569 93° East 328 377 10,700 -1,800 Descending Fort Worth Center
03:17PM 32.5286 -94.1683 95° East 284 327 9,000 -1,740 Descending Fort Worth Center
03:17PM 32.5308 -94.1708 317° Northwest 304 350 9,000 -2,460 Level Fort Worth Center
03:18PM 32.5325 -94.0794 89° East 266 306 6,500 -2,700 Descending Fort Worth Center
03:18PM 32.5344 -94.0719 73° East 274 315 6,300 -2,460 Descending Fort Worth Center
03:19PM 32.5575 -94.0047 68° East 247 284 4,000 -2,100 Descending Fort Worth Center
03:20PM 32.5619 -93.9331 86° East 200 230 2,200 -1,260 Descending Fort Worth Center
03:21PM 32.5278 -93.9022 143° Southeast 161 185 1,500 -720 Descending Fort Worth Center
03:21PM 32.5214 -93.9000 164° South 163 188 1,500 -120 Level Fort Worth Center
03:22PM 32.4956 -93.8739 140° Southeast 140 161 1,400 -120 Descending Fort Worth Center
03:22PM 32.4936 -93.8742 187° South 123 142 1,400 -720 Level Fort Worth Center
03:23PM 32.4719 -93.8478 134° Southeast 129 148 700 -720 Descending Fort Worth Center
03:23PM 32.4656 -93.8506 200° South 124 143 700 900 Level Fort Worth Center
03:24PM 32.4375 -93.8172 135° Southeast 134 154 1,600 840 Climbing Fort Worth Center
03:24PM 32.4336 -93.8197 208° Southwest 166 191 1,600 660 Level Fort Worth Center
03:25PM 32.3947 -93.7819 141° Southeast 183 211 2,300 900 Climbing Fort Worth Center
03:25PM 32.3947 -93.7747 90° East 222 255 2,500 780 Climbing Fort Worth Center
03:26PM 32.4333 -93.7411 36° Northeast 132 152 3,100 540 Climbing Fort Worth Center
03:26PM 32.4333 -93.7461 270° West 211 243 3,100  Level Fort Worth Center
03:27PM 32.4639 -93.7867 312° West 138 159 3,100  Level Fort Worth Center
03:27PM 32.4664 -93.7989 284° West 187 215 3,100  Level Fort Worth Center
03:28PM 32.5092 -93.8389 322° Northwest 202 232 3,100  Level Fort Worth Center
03:29PM 32.5522 -93.8842 318° Northwest 214 246 3,100  Level Fort Worth Center
03:30PM 32.5994 -93.9292 321° Northwest 212 244 3,100 -540 Level Fort Worth Center
03:31PM 32.5686 -93.9525 213° Southwest 180 207 2,100 -840 Descending Fort Worth Center
03:32PM 32.5364 -93.9119 133° Southeast 154 177 1,500 -300 Descending Fort Worth Center
03:33PM 32.5064 -93.8858 144° Southeast 120 138 1,500 -420 Level Fort Worth Center
03:34PM 32.4786 -93.8625 145° Southeast 127 146 700 -840 Descending Fort Worth Center